createdAt,value
2022-08-25T00:01:31.312Z,23.50
2022-08-25T00:04:01.701Z,13.30
2022-08-25T00:06:28.965Z,8.87
2022-08-25T00:08:59.729Z,9.40
2022-08-25T00:11:30.010Z,16.07
2022-08-25T00:14:00.557Z,17.10
2022-08-25T00:16:30.233Z,12.47
2022-08-25T00:18:59.629Z,13.27
2022-08-25T00:21:28.053Z,20.87
2022-08-25T00:23:54.986Z,12.27
2022-08-25T00:26:23.014Z,13.03
2022-08-25T00:28:50.077Z,13.10
2022-08-25T00:31:23.719Z,8.10
2022-08-25T00:34:07.510Z,11.20
2022-08-25T00:36:34.949Z,8.40
2022-08-25T00:39:02.111Z,9.77
2022-08-25T00:41:29.349Z,25.17
2022-08-25T00:43:59.297Z,8.97
2022-08-25T00:46:32.677Z,13.43
2022-08-25T00:49:07.078Z,9.10
2022-08-25T00:51:43.249Z,15.07
2022-08-25T00:54:16.442Z,11.60
2022-08-25T00:56:45.529Z,15.73
2022-08-25T00:59:13.872Z,16.20
2022-08-25T01:01:41.012Z,16.37
2022-08-25T01:04:08.008Z,9.10
2022-08-25T01:06:38.779Z,13.83
2022-08-25T01:09:07.459Z,13.93
2022-08-25T01:11:35.445Z,16.43
2022-08-25T01:14:06.545Z,30.87
2022-08-25T01:16:38.317Z,23.70
2022-08-25T01:19:07.444Z,8.53
2022-08-25T01:21:40.997Z,20.87
2022-08-25T01:24:09.969Z,11.80
2022-08-25T01:26:37.101Z,15.67
2022-08-25T01:29:22.569Z,19.53
2022-08-25T01:31:51.065Z,16.77
2022-08-25T01:34:19.677Z,13.97
2022-08-25T01:36:47.036Z,7.57
2022-08-25T01:39:14.938Z,20.33
2022-08-25T01:41:41.865Z,19.43
2022-08-25T01:44:14.122Z,9.53
2022-08-25T01:46:43.969Z,22.03
2022-08-25T01:49:11.013Z,12.30
2022-08-25T01:51:49.057Z,13.70
2022-08-25T01:54:16.017Z,24.87
2022-08-25T01:56:43.294Z,25.73
2022-08-25T01:59:10.499Z,27.93
2022-08-25T02:01:37.585Z,15.10
2022-08-25T02:04:04.656Z,16.30
2022-08-25T02:06:33.310Z,27.80
2022-08-25T02:09:05.138Z,16.13
2022-08-25T02:11:33.917Z,12.97
2022-08-25T02:14:01.225Z,18.73
2022-08-25T02:16:35.403Z,16.07
2022-08-25T02:19:04.481Z,11.63
2022-08-25T02:21:32.613Z,11.10
2022-08-25T02:24:00.186Z,17.40
2022-08-25T02:26:28.033Z,25.50
2022-08-25T02:28:54.953Z,16.40
2022-08-25T02:31:24.939Z,18.97
2022-08-25T02:33:53.014Z,28.53
2022-08-25T02:36:20.521Z,14.10
2022-08-25T02:38:47.646Z,24.53
2022-08-25T02:41:21.040Z,34.60
2022-08-25T02:43:49.214Z,16.50
2022-08-25T02:46:19.923Z,14.67
2022-08-25T02:48:47.939Z,13.00
2022-08-25T02:51:15.612Z,25.37
2022-08-25T02:53:46.067Z,12.50
2022-08-25T02:56:14.684Z,16.77
2022-08-25T02:58:42.710Z,12.60
2022-08-25T03:01:12.074Z,10.27
2022-08-25T03:03:44.423Z,12.23
2022-08-25T03:06:13.930Z,21.33
2022-08-25T03:08:42.221Z,26.67
2022-08-25T03:11:09.897Z,15.03
2022-08-25T03:13:37.349Z,22.20
2022-08-25T03:16:10.863Z,14.37
2022-08-25T03:18:39.946Z,16.17
2022-08-25T03:21:07.917Z,19.27
2022-08-25T03:23:35.157Z,24.33
2022-08-25T03:26:20.470Z,18.13
2022-08-25T03:28:47.383Z,11.93
2022-08-25T03:31:14.824Z,10.37
2022-08-25T03:33:42.996Z,11.90
2022-08-25T03:36:12.319Z,17.90
2022-08-25T03:38:39.898Z,21.23
2022-08-25T03:41:15.150Z,25.67
2022-08-25T03:43:42.585Z,19.63
2022-08-25T03:46:10.425Z,16.23
2022-08-25T03:48:37.318Z,41.17
2022-08-25T03:51:04.575Z,14.23
2022-08-25T03:53:31.462Z,22.80
2022-08-25T03:55:58.658Z,20.00
2022-08-25T03:58:26.834Z,23.93
2022-08-25T04:00:54.100Z,20.57
2022-08-25T04:03:21.211Z,30.43
2022-08-25T04:05:48.172Z,22.57
2022-08-25T04:08:15.234Z,19.73
2022-08-25T04:10:42.311Z,23.47
2022-08-25T04:13:09.323Z,20.07
2022-08-25T04:15:36.802Z,17.33
2022-08-25T04:18:04.116Z,19.57
2022-08-25T04:20:31.171Z,23.67
2022-08-25T04:23:01.400Z,32.70
2022-08-25T04:25:29.174Z,19.20
2022-08-25T04:27:56.420Z,19.73
2022-08-25T04:30:23.567Z,21.33
2022-08-25T04:32:50.446Z,30.37
2022-08-25T04:35:17.489Z,18.47
2022-08-25T04:37:45.231Z,30.93
2022-08-25T04:40:12.776Z,33.57
2022-08-25T04:42:40.098Z,21.87
2022-08-25T04:45:07.536Z,28.90
2022-08-25T04:47:39.014Z,25.07
2022-08-25T04:50:07.503Z,20.87
2022-08-25T04:52:34.515Z,24.93
2022-08-25T04:55:01.707Z,22.90
2022-08-25T04:57:28.930Z,25.23
2022-08-25T04:59:55.823Z,31.07
2022-08-25T05:02:25.273Z,29.47
2022-08-25T05:04:52.640Z,26.10
2022-08-25T05:07:19.803Z,36.60
2022-08-25T05:09:46.863Z,28.60
2022-08-25T05:12:13.967Z,42.37
2022-08-25T05:14:40.975Z,37.80
2022-08-25T05:17:07.999Z,22.53
2022-08-25T05:19:36.239Z,41.33
2022-08-25T05:22:03.445Z,26.13
2022-08-25T05:24:30.471Z,24.23
2022-08-25T05:26:58.811Z,19.60
2022-08-25T05:29:26.063Z,41.23
2022-08-25T05:31:54.158Z,50.37
2022-08-25T05:34:21.768Z,29.93
2022-08-25T05:36:49.217Z,40.37
2022-08-25T05:39:16.271Z,32.03
2022-08-25T05:41:43.348Z,21.67
2022-08-25T05:44:10.776Z,30.23
2022-08-25T05:46:37.660Z,37.37
2022-08-25T05:49:04.605Z,35.13
2022-08-25T05:51:31.816Z,27.73
2022-08-25T05:53:58.749Z,33.93
2022-08-25T05:56:25.692Z,34.77
2022-08-25T05:58:52.608Z,28.63
2022-08-25T06:01:45.956Z,36.63
2022-08-25T06:04:14.140Z,32.77
2022-08-25T06:06:41.628Z,20.10
2022-08-25T06:09:09.726Z,36.47
2022-08-25T06:11:41.081Z,27.30
2022-08-25T06:14:09.801Z,32.27
2022-08-25T06:16:38.578Z,26.50
2022-08-25T06:19:06.608Z,39.87
2022-08-25T06:21:33.644Z,37.17
2022-08-25T06:24:01.854Z,33.87
2022-08-25T06:26:28.925Z,26.30
2022-08-25T06:28:55.799Z,23.60
2022-08-25T06:31:22.750Z,27.50
2022-08-25T06:33:50.112Z,27.17
2022-08-25T06:36:17.159Z,22.70
2022-08-25T06:38:44.117Z,29.30
2022-08-25T06:41:11.052Z,26.10
2022-08-25T06:43:42.575Z,33.30
2022-08-25T06:46:20.520Z,27.07
2022-08-25T06:48:48.107Z,35.23
2022-08-25T06:51:18.427Z,33.10
2022-08-25T06:53:47.881Z,27.93
2022-08-25T06:56:16.220Z,38.00
2022-08-25T06:58:43.473Z,30.33
2022-08-25T07:01:20.127Z,32.70
2022-08-25T07:03:48.479Z,34.67
2022-08-25T07:06:16.559Z,17.77
2022-08-25T07:08:46.639Z,23.20
2022-08-25T07:11:17.656Z,38.17
2022-08-25T07:13:45.961Z,25.50
2022-08-25T07:16:17.731Z,39.60
2022-08-25T07:18:46.349Z,27.57
2022-08-25T07:21:14.797Z,22.40
2022-08-25T07:23:42.545Z,24.43
2022-08-25T07:26:35.732Z,32.63
2022-08-25T07:28:59.986Z,26.80
2022-08-25T07:31:29.531Z,32.33
2022-08-25T07:34:16.513Z,21.07
2022-08-25T07:36:45.048Z,19.93
2022-08-25T07:39:13.003Z,35.00
2022-08-25T07:41:42.164Z,19.73
2022-08-25T07:44:11.413Z,46.10
2022-08-25T07:46:39.507Z,35.23
2022-08-25T07:49:16.794Z,15.93
2022-08-25T07:52:03.590Z,29.47
2022-08-25T07:54:33.972Z,25.67
2022-08-25T07:57:06.319Z,33.37
2022-08-25T07:59:39.585Z,20.03
2022-08-25T08:02:18.215Z,25.33
2022-08-25T08:04:50.504Z,30.83
2022-08-25T08:07:41.144Z,17.93
2022-08-25T08:10:42.201Z,20.53
2022-08-25T08:13:00.148Z,21.87
2022-08-25T08:15:29.827Z,8.67
2022-08-25T08:17:58.114Z,12.57
2022-08-25T08:20:26.824Z,13.10
2022-08-25T08:22:53.922Z,20.00
2022-08-25T08:25:21.327Z,22.73
2022-08-25T08:27:55.280Z,21.53
2022-08-25T08:30:26.008Z,27.43
2022-08-25T08:33:11.583Z,35.50
2022-08-25T08:35:40.173Z,47.87
2022-08-25T08:38:14.531Z,64.97
2022-08-25T08:41:40.061Z,37.03
2022-08-25T08:44:22.409Z,26.63
2022-08-25T08:47:08.995Z,22.97
2022-08-25T08:49:57.455Z,20.30
2022-08-25T08:52:43.541Z,20.77
2022-08-25T08:55:54.838Z,26.17
2022-08-25T08:58:28.964Z,15.43
2022-08-25T09:01:02.297Z,28.03
2022-08-25T09:03:41.224Z,25.77
2022-08-25T09:06:21.747Z,25.93
2022-08-25T09:08:49.200Z,31.67
2022-08-25T09:11:33.865Z,15.73
2022-08-25T09:14:10.980Z,17.87
2022-08-25T09:16:55.521Z,14.50
2022-08-25T09:19:23.491Z,20.87
2022-08-25T09:22:36.017Z,25.03
2022-08-25T09:25:29.574Z,16.33
2022-08-25T09:28:26.036Z,20.17
2022-08-25T09:31:01.271Z,15.17
2022-08-25T09:33:31.496Z,9.73
2022-08-25T09:36:04.508Z,18.10
2022-08-25T09:38:33.432Z,9.90
2022-08-25T09:41:02.016Z,13.47
2022-08-25T09:43:42.876Z,18.20
2022-08-25T09:46:23.666Z,18.87
2022-08-25T09:48:59.592Z,17.77
2022-08-25T09:51:38.183Z,18.87
2022-08-25T09:54:13.227Z,13.53
2022-08-25T09:56:58.764Z,10.00
2022-08-25T09:59:35.754Z,15.70
2022-08-25T10:02:27.888Z,12.60
2022-08-25T10:04:55.243Z,11.57
2022-08-25T10:07:38.713Z,7.37
2022-08-25T10:10:18.490Z,26.83
2022-08-25T10:12:51.551Z,16.53
2022-08-25T10:15:29.681Z,13.07
2022-08-25T10:18:17.725Z,9.50
2022-08-25T10:20:50.920Z,11.83
2022-08-25T10:23:17.977Z,10.00
2022-08-25T10:25:59.010Z,13.60
2022-08-25T10:28:43.500Z,13.40
2022-08-25T10:31:21.223Z,10.57
2022-08-25T10:33:59.349Z,9.60
2022-08-25T10:36:57.744Z,5.70
2022-08-25T10:39:40.469Z,17.37
2022-08-25T10:42:36.704Z,15.83
2022-08-25T10:45:45.141Z,6.50
2022-08-25T10:48:23.461Z,11.53
2022-08-25T10:51:01.234Z,12.13
2022-08-25T10:53:34.797Z,6.63
2022-08-25T10:56:21.120Z,8.03
2022-08-25T10:58:54.456Z,4.03
2022-08-25T11:01:43.975Z,7.20
2022-08-25T11:04:14.364Z,9.93
2022-08-25T11:06:54.788Z,5.90
2022-08-25T11:09:30.568Z,8.20
2022-08-25T11:12:14.392Z,8.73
2022-08-25T11:14:54.342Z,8.23
2022-08-25T11:17:26.589Z,9.37
2022-08-25T11:20:01.669Z,8.60
2022-08-25T11:22:46.392Z,9.77
2022-08-25T11:25:25.745Z,11.43
2022-08-25T11:28:10.990Z,13.57
2022-08-25T11:30:38.616Z,11.57
2022-08-25T11:33:07.705Z,6.80
2022-08-25T11:35:46.877Z,3.43
2022-08-25T11:38:21.189Z,14.50
2022-08-25T11:41:42.582Z,9.33
2022-08-25T11:44:20.705Z,3.53
2022-08-25T11:47:00.481Z,7.57
2022-08-25T11:49:37.604Z,6.13
2022-08-25T11:52:30.797Z,3.10
2022-08-25T11:55:11.013Z,10.23
2022-08-25T11:57:39.021Z,4.30
2022-08-25T12:00:15.397Z,6.13
2022-08-25T12:02:47.705Z,5.90
2022-08-25T12:05:22.163Z,2.60
2022-08-25T12:08:13.371Z,9.90
2022-08-25T12:11:07.270Z,9.93
2022-08-25T12:13:49.596Z,6.77
2022-08-25T12:16:35.698Z,2.90
2022-08-25T12:19:36.682Z,2.90
2022-08-25T12:22:05.137Z,8.47
2022-08-25T12:24:56.365Z,10.00
2022-08-25T12:27:36.698Z,13.53
2022-08-25T12:30:18.414Z,8.23
2022-08-25T12:32:54.343Z,5.30
2022-08-25T12:35:41.880Z,11.03
2022-08-25T12:38:16.662Z,5.33
2022-08-25T12:40:43.858Z,4.57
2022-08-25T12:43:24.922Z,7.80
2022-08-25T12:45:54.255Z,4.60
2022-08-25T12:48:28.083Z,4.73
2022-08-25T12:51:04.241Z,5.70
2022-08-25T12:53:51.814Z,11.07
2022-08-25T12:56:39.536Z,9.07
2022-08-25T12:59:20.229Z,8.03
2022-08-25T13:02:16.064Z,11.50
2022-08-25T13:05:01.390Z,4.43
2022-08-25T13:07:48.330Z,5.07
2022-08-25T13:10:21.125Z,4.53
2022-08-25T13:13:45.418Z,12.13
2022-08-25T13:16:29.071Z,12.60
2022-08-25T13:18:59.602Z,5.10
2022-08-25T13:21:37.606Z,5.90
2022-08-25T13:24:20.978Z,3.40
2022-08-25T13:26:52.598Z,6.90
2022-08-25T13:29:26.046Z,3.10
2022-08-25T13:31:57.715Z,3.33
2022-08-25T13:34:34.429Z,2.40
2022-08-25T13:37:32.270Z,11.13
2022-08-25T13:40:12.826Z,5.00
2022-08-25T13:42:43.211Z,8.60
2022-08-25T13:45:23.899Z,3.70
2022-08-25T13:47:56.076Z,4.17
2022-08-25T13:50:26.477Z,9.10
2022-08-25T13:53:06.525Z,3.97
2022-08-25T13:55:51.481Z,10.33
2022-08-25T13:58:39.487Z,4.20
2022-08-25T14:01:47.259Z,12.70
2022-08-25T14:04:27.366Z,4.87
2022-08-25T14:07:23.163Z,3.80
2022-08-25T14:09:53.291Z,3.73
2022-08-25T14:12:47.555Z,8.73
2022-08-25T14:15:17.414Z,4.20
2022-08-25T14:17:59.481Z,5.63
2022-08-25T14:20:29.290Z,4.00
2022-08-25T14:22:59.412Z,5.83
2022-08-25T14:25:30.366Z,9.60
2022-08-25T14:28:08.246Z,2.57
2022-08-25T14:30:39.955Z,17.33
2022-08-25T14:33:11.848Z,11.53
2022-08-25T14:35:38.764Z,8.93
2022-08-25T14:38:11.021Z,3.80
2022-08-25T14:40:39.659Z,6.00
2022-08-25T14:43:09.663Z,8.43
2022-08-25T14:45:40.110Z,11.73
2022-08-25T14:48:10.820Z,7.37
2022-08-25T14:50:41.876Z,14.13
2022-08-25T14:53:10.427Z,8.50
2022-08-25T14:55:38.907Z,3.80
2022-08-25T14:58:07.339Z,6.80
2022-08-25T15:00:41.909Z,3.90
2022-08-25T15:03:31.769Z,8.03
2022-08-25T15:06:00.531Z,9.70
2022-08-25T15:08:46.924Z,9.50
2022-08-25T15:11:14.944Z,7.87
2022-08-25T15:13:49.001Z,2.70
2022-08-25T15:16:34.036Z,3.37
2022-08-25T15:19:07.233Z,4.60
2022-08-25T15:21:35.847Z,2.07
2022-08-25T15:24:04.711Z,5.90
2022-08-25T15:26:35.267Z,3.43
2022-08-25T15:29:03.767Z,15.53
2022-08-25T15:31:30.736Z,6.93
2022-08-25T15:33:57.699Z,9.07
2022-08-25T15:36:26.156Z,8.60
2022-08-25T15:38:53.321Z,8.23
2022-08-25T15:41:23.121Z,4.10
2022-08-25T15:43:54.708Z,3.47
2022-08-25T15:46:25.033Z,2.63
2022-08-25T15:48:52.151Z,10.67
2022-08-25T15:51:19.080Z,4.57
2022-08-25T15:53:46.455Z,5.67
2022-08-25T15:56:16.043Z,3.60
2022-08-25T15:58:53.852Z,8.73
2022-08-25T16:01:24.865Z,6.83
2022-08-25T16:03:52.471Z,5.20
2022-08-25T16:06:19.724Z,6.70
2022-08-25T16:08:47.655Z,6.40
2022-08-25T16:11:28.260Z,8.33
2022-08-25T16:13:57.380Z,3.70
2022-08-25T16:16:26.475Z,1.97
2022-08-25T16:18:53.807Z,6.03
2022-08-25T16:21:29.153Z,3.63
2022-08-25T16:24:01.919Z,2.30
2022-08-25T16:26:31.411Z,9.63
2022-08-25T16:28:58.512Z,3.73
2022-08-25T16:31:26.135Z,7.63
2022-08-25T16:33:56.102Z,2.43
2022-08-25T16:36:27.209Z,3.97
2022-08-25T16:38:57.321Z,2.27
2022-08-25T16:41:31.532Z,17.50
2022-08-25T16:43:58.722Z,10.70
2022-08-25T16:46:25.802Z,9.50
2022-08-25T16:48:53.456Z,7.83
2022-08-25T16:51:22.124Z,6.80
2022-08-25T16:54:08.604Z,4.90
2022-08-25T16:56:36.973Z,5.37
2022-08-25T16:59:06.277Z,4.07
2022-08-25T17:01:35.514Z,5.93
2022-08-25T17:04:03.468Z,2.80
2022-08-25T17:06:36.268Z,6.20
2022-08-25T17:09:03.740Z,3.17
2022-08-25T17:11:35.150Z,9.83
2022-08-25T17:14:04.657Z,3.97
2022-08-25T17:16:38.086Z,8.33
2022-08-25T17:19:11.678Z,3.97
2022-08-25T17:21:41.216Z,2.50
2022-08-25T17:24:12.668Z,3.73
2022-08-25T17:26:42.261Z,8.23
2022-08-25T17:29:09.628Z,16.90
2022-08-25T17:31:39.845Z,6.87
2022-08-25T17:34:10.651Z,2.60
2022-08-25T17:36:38.373Z,8.10
2022-08-25T17:39:08.715Z,5.80
2022-08-25T17:41:37.835Z,4.77
2022-08-25T17:44:05.317Z,7.40
2022-08-25T17:46:32.966Z,7.77
2022-08-25T17:49:00.232Z,12.20
2022-08-25T17:51:27.271Z,10.57
2022-08-25T17:53:58.835Z,4.23
2022-08-25T17:56:27.394Z,3.80
2022-08-25T17:58:55.965Z,14.33
2022-08-25T18:01:29.196Z,8.97
2022-08-25T18:03:57.531Z,17.83
2022-08-25T18:06:25.313Z,8.80
2022-08-25T18:08:56.373Z,9.90
2022-08-25T18:11:26.030Z,4.10
2022-08-25T18:13:53.852Z,7.63
2022-08-25T18:16:21.569Z,7.30
2022-08-25T18:18:48.699Z,16.13
2022-08-25T18:21:18.017Z,9.73
2022-08-25T18:23:45.801Z,11.80
2022-08-25T18:26:15.346Z,7.07
2022-08-25T18:28:43.893Z,3.70
2022-08-25T18:31:13.154Z,12.40
2022-08-25T18:33:42.220Z,8.07
2022-08-25T18:36:09.855Z,6.60
2022-08-25T18:38:56.593Z,9.30
2022-08-25T18:41:25.860Z,6.20
2022-08-25T18:43:53.168Z,5.43
2022-08-25T18:46:22.669Z,9.10
2022-08-25T18:48:53.708Z,16.63
2022-08-25T18:51:23.225Z,25.57
2022-08-25T18:53:54.461Z,18.07
2022-08-25T18:56:26.701Z,9.80
2022-08-25T18:58:53.530Z,15.87
2022-08-25T19:01:21.360Z,3.73
2022-08-25T19:03:48.836Z,5.60
2022-08-25T19:06:16.920Z,3.47
2022-08-25T19:08:45.224Z,7.20
2022-08-25T19:11:12.772Z,6.30
2022-08-25T19:13:40.345Z,3.57
2022-08-25T19:16:30.791Z,7.37
2022-08-25T19:18:57.719Z,10.27
2022-08-25T19:21:25.299Z,10.80
2022-08-25T19:23:53.154Z,9.27
2022-08-25T19:26:20.923Z,5.90
2022-08-25T19:28:49.347Z,6.90
2022-08-25T19:31:27.022Z,8.67
2022-08-25T19:33:55.813Z,11.30
2022-08-25T19:36:28.014Z,7.90
2022-08-25T19:38:58.288Z,8.30
2022-08-25T19:41:27.702Z,6.67
2022-08-25T19:43:56.147Z,8.17
2022-08-25T19:46:37.906Z,7.70
2022-08-25T19:49:10.113Z,15.63
2022-08-25T19:51:47.716Z,4.10
2022-08-25T19:54:25.401Z,10.40
2022-08-25T19:56:55.327Z,12.73
2022-08-25T19:59:42.349Z,12.27
2022-08-25T20:02:15.759Z,4.27
2022-08-25T20:04:49.211Z,5.97
2022-08-25T20:07:19.007Z,8.13
2022-08-25T20:09:46.466Z,8.17
2022-08-25T20:14:47.168Z,8.00
2022-08-25T20:17:24.813Z,5.60
2022-08-25T20:19:55.728Z,7.40
2022-08-25T20:22:26.126Z,10.03
2022-08-25T20:25:13.385Z,8.23
2022-08-25T20:27:46.793Z,3.23
2022-08-25T20:30:22.218Z,7.03
2022-08-25T20:32:50.798Z,6.63
2022-08-25T20:35:18.721Z,11.90
2022-08-25T20:37:47.360Z,12.80
2022-08-25T20:40:18.237Z,6.60
2022-08-25T20:42:52.178Z,9.27
2022-08-25T20:45:24.169Z,9.73
2022-08-25T20:47:51.341Z,10.53
2022-08-25T20:50:18.490Z,7.60
2022-08-25T20:52:45.435Z,7.30
2022-08-25T20:55:12.470Z,6.77
2022-08-25T20:57:40.422Z,4.73
2022-08-25T21:00:09.598Z,7.30
2022-08-25T21:02:37.011Z,10.87
2022-08-25T21:05:04.762Z,7.57
2022-08-25T21:07:31.718Z,9.67
2022-08-25T21:10:05.494Z,13.33
2022-08-25T21:12:32.354Z,15.30
2022-08-25T21:14:59.261Z,6.00
2022-08-25T21:17:26.289Z,7.13
2022-08-25T21:19:53.258Z,7.33
2022-08-25T21:22:20.681Z,9.93
2022-08-25T21:24:47.537Z,8.43
2022-08-25T21:27:14.565Z,8.17
2022-08-25T21:29:44.819Z,4.17
2022-08-25T21:32:22.260Z,7.77
2022-08-25T21:34:56.414Z,4.83
2022-08-25T21:37:24.466Z,9.60
2022-08-25T21:39:52.306Z,6.70
2022-08-25T21:42:22.404Z,10.23
2022-08-25T21:44:50.558Z,6.73
2022-08-25T21:47:21.141Z,14.50
2022-08-25T21:49:49.060Z,6.73
2022-08-25T21:52:16.089Z,33.97
2022-08-25T21:54:44.749Z,7.13
2022-08-25T21:57:11.598Z,7.97
2022-08-25T21:59:43.439Z,15.70
2022-08-25T22:02:12.487Z,6.77
2022-08-25T22:04:40.374Z,9.63
2022-08-25T22:07:08.781Z,6.20
2022-08-25T22:09:35.731Z,7.03
2022-08-25T22:12:03.819Z,12.73
2022-08-25T22:14:31.137Z,7.00
2022-08-25T22:16:58.214Z,11.00
2022-08-25T22:19:26.393Z,15.80
2022-08-25T22:21:53.958Z,10.97
2022-08-25T22:24:21.157Z,9.50
2022-08-25T22:26:49.078Z,7.30
2022-08-25T22:29:25.843Z,15.90
2022-08-25T22:32:00.789Z,7.70
2022-08-25T22:34:33.078Z,8.77
2022-08-25T22:37:04.829Z,9.87
2022-08-25T22:39:34.248Z,15.40
2022-08-25T22:42:02.885Z,4.57
2022-08-25T22:44:30.215Z,12.33
2022-08-25T22:46:57.048Z,8.63
2022-08-25T22:49:24.041Z,11.43
2022-08-25T22:51:51.122Z,10.57
2022-08-25T22:54:21.917Z,11.83
2022-08-25T22:56:48.741Z,8.73
2022-08-25T22:59:15.713Z,6.97
2022-08-25T23:01:44.141Z,12.57
2022-08-25T23:04:11.684Z,3.57
2022-08-25T23:06:40.127Z,7.60
2022-08-25T23:09:08.842Z,6.93
2022-08-25T23:11:38.429Z,4.77
2022-08-25T23:14:08.290Z,9.53
2022-08-25T23:16:35.238Z,6.77
2022-08-25T23:19:02.279Z,4.47
2022-08-25T23:21:48.453Z,14.10
2022-08-25T23:24:29.151Z,14.47
2022-08-25T23:27:01.616Z,8.40
2022-08-25T23:29:29.910Z,12.20
2022-08-25T23:31:58.251Z,6.73
2022-08-25T23:34:26.838Z,5.90
2022-08-25T23:36:55.942Z,9.73
2022-08-25T23:39:23.064Z,8.60
2022-08-25T23:41:51.009Z,9.00
2022-08-25T23:44:19.176Z,16.03
2022-08-25T23:46:47.852Z,20.30
2022-08-25T23:49:18.700Z,12.20
2022-08-25T23:51:47.745Z,13.60
2022-08-25T23:54:16.332Z,7.77
2022-08-25T23:56:44.887Z,11.07
2022-08-25T23:59:18.939Z,13.20
